St Joseph — WDC2814 — position and weather

sailwx.info

Track history (hours):
 
Tides and Currents Weather Stations Pressure Air Temp Water Temp Dewpoint Dewpoint Depression Visibility Wind Speed Wind Dir Waves Ship Positions

St Joseph

Owner: Marquette Transportation Company Gulf-Inland, LLC, Jefferson, LA. More information available from US FCC via Universal Licensing System and Coast Guard Vessel Documentation Center.

Last reported at 2018-Feb-17 19:58 UTC. Time now 2018-Feb-17 20:13 UTC.
Position N 30°03' W 093°16'.

Length 116 m; draft 2.9 m.

Type: Tug. MMSI: 366998040.

Date/timePositionNaut miles runAvg speedWind from/ knotsBaromVisibWave heightAir tempDewpointWater temp
2018-Feb-17 19:58N 30°03' W 093°16'2 4.0
2018-Feb-17 19:30N 30°05' W 093°17'2 3.6
2018-Feb-17 19:00N 30°06' W 093°18'1 1.3
2018-Feb-17 18:29N 30°06' W 093°19'0 0.0
2018-Feb-17 17:59N 30°06' W 093°19'0 0.0
2018-Feb-17 17:28N 30°06' W 093°19'0 0.3
2018-Feb-17 17:00N 30°06' W 093°19'2 4.6
2018-Feb-17 16:30N 30°04' W 093°21'2 3.7
2018-Feb-17 16:01N 30°04' W 093°23'0 0.2
2018-Feb-17 15:28N 30°04' W 093°23'0 0.0
2018-Feb-17 14:58N 30°04' W 093°23'0 0.0
2018-Feb-17 14:28N 30°04' W 093°23'0 0.0
2018-Feb-17 13:58N 30°04' W 093°23'0 0.0
2018-Feb-17 13:28N 30°04' W 093°23'0 0.0
2018-Feb-17 12:58N 30°04' W 093°23'0 0.0
2018-Feb-17 12:28N 30°04' W 093°23'0 0.0
2018-Feb-17 11:58N 30°04' W 093°23'0 0.0
2018-Feb-17 11:28N 30°04' W 093°23'0 0.1
2018-Feb-17 10:58N 30°04' W 093°23'0 0.0
2018-Feb-17 10:28N 30°04' W 093°23'0 0.0
2018-Feb-17 09:58N 30°04' W 093°23'0 0.0
2018-Feb-17 09:28N 30°04' W 093°23'0 0.0
2018-Feb-17 08:58N 30°04' W 093°23'0 0.0
2018-Feb-17 08:28N 30°04' W 093°23'0 0.0
2018-Feb-17 07:58N 30°04' W 093°23'0 0.0
2018-Feb-17 07:31N 30°04' W 093°23'1 1.0
2018-Feb-17 07:00N 30°04' W 093°23'2 5.0
2018-Feb-17 06:31N 30°04' W 093°26'3 5.5
2018-Feb-17 06:00N 30°04' W 093°29'3 5.2
2018-Feb-17 05:30N 30°04' W 093°32'3 5.3
2018-Feb-17 05:00N 30°04' W 093°35'3 5.3
2018-Feb-17 04:31N 30°04' W 093°39'3 5.3
2018-Feb-17 04:00N 30°04' W 093°42'3 5.5
2018-Feb-17 03:30N 30°02' W 093°44'3 6.4
2018-Feb-17 03:01N 29°60' W 093°47'3 6.9
2018-Feb-17 02:31N 29°58' W 093°50'3 5.5
2018-Feb-17 02:01N 29°56' W 093°52'4 7.3
2018-Feb-17 01:30N 29°53' W 093°55'4 7.6
2018-Feb-17 01:00N 29°50' W 093°57'3 5.9
2018-Feb-17 00:30N 29°48' W 093°60'3 5.0
2018-Feb-17 00:01N 29°47' W 094°02'2 4.8
2018-Feb-16 23:31N 29°45' W 094°04'2 4.8
2018-Feb-16 23:00N 29°44' W 094°06'2 4.8
2018-Feb-16 22:31N 29°42' W 094°09'2 4.5
2018-Feb-16 22:00N 29°41' W 094°11'2 3.2
2018-Feb-16 21:30N 29°41' W 094°13'2 4.9
2018-Feb-16 21:00N 29°39' W 094°15'2 4.8
2018-Feb-16 20:30N 29°38' W 094°18'3 4.8
2018-Feb-16 19:59N 29°37' W 094°20'2 4.6
2018-Feb-16 19:30N 29°36' W 094°22'2 4.0
2018-Feb-16 18:59N 29°36' W 094°25'3 3.6
2018-Feb-16 18:06N 29°34' W 094°28'1 4.7
2018-Feb-16 17:57N 29°33' W 094°28'15 1.6
2018-Feb-16 08:10N 29°25' W 094°43'0 0.0
2018-Feb-16 07:55N 29°25' W 094°43'0 0.0
2018-Feb-16 07:07N 29°25' W 094°43'0 0.0
2018-Feb-16 06:40N 29°25' W 094°43'0 0.0
2018-Feb-16 06:07N 29°25' W 094°43'0 0.0
2018-Feb-16 05:58N 29°25' W 094°43'0 0.4
2018-Feb-16 04:58N 29°25' W 094°44'2 3.9
2018-Feb-16 04:30N 29°24' W 094°45'2 4.7
2018-Feb-16 04:00N 29°22' W 094°47'2 5.1
2018-Feb-16 03:30N 29°24' W 094°49'4 7.2
2018-Feb-16 02:57N 29°28' W 094°51'11 7.3
2018-Feb-16 01:24N 29°38' W 094°58'4 7.7
2018-Feb-16 00:53N 29°41' W 094°59'7 0.4
2018-Feb-15 04:22N 29°47' W 095°04'0 0.0
2018-Feb-14 21:23N 29°47' W 095°04'1 3.2
2018-Feb-14 20:59N 29°46' W 095°05'0 0.0
2018-Feb-13 19:15N 29°46' W 095°05'3 5.3
2018-Feb-13 18:46N 29°44' W 095°03'2 5.4
2018-Feb-13 18:27N 29°43' W 095°01'2 4.9
2018-Feb-13 18:00N 29°42' W 094°59'3 5.7
2018-Feb-13 17:29N 29°39' W 094°58'3 6.6
2018-Feb-13 17:00N 29°36' W 094°57'5 6.6
2018-Feb-13 16:16N 29°32' W 094°54'23 0.6
2018-Feb-12 01:29N 29°34' W 094°27'4 4.2
2018-Feb-12 00:35N 29°36' W 094°23'1 0.6
2018-Feb-11 23:31N 29°36' W 094°23'0 0.0
2018-Feb-11 23:22N 29°36' W 094°23'1 0.4
2018-Feb-11 21:14N 29°36' W 094°22'1 2.8
2018-Feb-11 20:47N 29°37' W 094°21'2 4.0
2018-Feb-11 20:23N 29°38' W 094°19'2 5.2
2018-Feb-11 20:00N 29°39' W 094°17'3 5.6
2018-Feb-11 19:30N 29°40' W 094°14'3 5.4
2018-Feb-11 19:00N 29°41' W 094°11'2 4.9
2018-Feb-11 18:30N 29°42' W 094°09'2 4.3
2018-Feb-11 18:00N 29°43' W 094°07'2 4.9
2018-Feb-11 17:30N 29°45' W 094°05'2 4.9
2018-Feb-11 17:00N 29°46' W 094°02'2 4.7
2018-Feb-11 16:31N 29°48' W 094°00'2 3.9
2018-Feb-11 16:00N 29°49' W 093°59'2 3.6
2018-Feb-11 15:30N 29°50' W 093°57'3 5.9
2018-Feb-11 15:00N 29°53' W 093°55'3 6.0
2018-Feb-11 14:30N 29°55' W 093°53'1 2.6
2018-Feb-11 13:59N 29°56' W 093°52'0 0.0
2018-Feb-11 13:29N 29°56' W 093°52'0 0.0
2018-Feb-11 12:59N 29°56' W 093°52'0 0.0
2018-Feb-11 12:29N 29°56' W 093°52'0 0.1
2018-Feb-11 11:59N 29°56' W 093°52'0 0.0
2018-Feb-11 11:29N 29°56' W 093°52'0 0.0
2018-Feb-11 10:59N 29°56' W 093°52'0 0.0
2018-Feb-11 10:29N 29°56' W 093°52'0 0.0
2018-Feb-11 09:59N 29°56' W 093°52'0 0.1
2018-Feb-11 09:29N 29°56' W 093°52'0 0.0
2018-Feb-11 08:59N 29°56' W 093°52'0 0.0
2018-Feb-11 08:29N 29°56' W 093°52'0 0.0
2018-Feb-11 07:59N 29°56' W 093°52'0 0.0
2018-Feb-11 07:26N 29°56' W 093°52'0 0.1
2018-Feb-11 06:59N 29°56' W 093°52'2 3.7
2018-Feb-11 06:30N 29°58' W 093°51'2 4.0
2018-Feb-11 06:00N 29°59' W 093°49'3 5.2
2018-Feb-11 05:30N 29°60' W 093°46'3 5.5
2018-Feb-11 05:00N 30°02' W 093°44'2 4.8
2018-Feb-11 04:30N 30°03' W 093°42'2 4.8
2018-Feb-11 03:59N 30°04' W 093°39'2 4.8
2018-Feb-11 03:30N 30°04' W 093°37'2 4.7
2018-Feb-11 03:00N 30°04' W 093°34'2 4.8
2018-Feb-11 02:30N 30°04' W 093°31'2 4.8
2018-Feb-11 02:00N 30°04' W 093°28'2 4.8
2018-Feb-11 01:30N 30°04' W 093°26'2 5.0
2018-Feb-11 01:00N 30°04' W 093°23'2 4.0
2018-Feb-11 00:30N 30°04' W 093°21'2 4.0
2018-Feb-11 00:00N 30°06' W 093°19'2 2.8
2018-Feb-10 23:28N 30°05' W 093°18'0 0.4
2018-Feb-10 23:01N 30°05' W 093°17'1 2.0
2018-Feb-10 22:31N 30°04' W 093°16'1 2.9
2018-Feb-10 22:00N 30°03' W 093°16'2 4.1
2018-Feb-10 21:30N 30°02' W 093°14'2 4.2
2018-Feb-10 21:00N 29°60' W 093°13'3 4.9
2018-Feb-10 20:30N 29°58' W 093°11'2 4.8
2018-Feb-10 20:00N 29°56' W 093°09'1 2.9
2018-Feb-10 19:31N 29°56' W 093°08'2 4.8
2018-Feb-10 18:59N 29°56' W 093°05'40 2.0
2018-Feb-09 23:21N 29°50' W 092°20'2 4.2
2018-Feb-09 22:57N 29°50' W 092°18'1 4.6
2018-Feb-09 22:45N 29°49' W 092°17'  
Track history (hours):
 
Tides and Currents Weather Stations Pressure Air Temp Water Temp Dewpoint Dewpoint Depression Visibility Wind Speed Wind Dir Waves Ship Positions

St Joseph

Owner: Marquette Transportation Company Gulf-Inland, LLC, Jefferson, LA. More information available from US FCC via Universal Licensing System and Coast Guard Vessel Documentation Center.

Last reported at 2018-Feb-17 19:58 UTC. Time now 2018-Feb-17 20:13 UTC.
Position N 30°03' W 093°16'.

Length 116 m; draft 2.9 m.

Type: Tug. MMSI: 366998040.

Date/timePositionNaut miles runAvg speedWind from/ knotsBaromVisibWave heightAir tempDewpointWater temp
2018-Feb-17 19:58N 30°03' W 093°16'2 4.0
2018-Feb-17 19:30N 30°05' W 093°17'2 3.6
2018-Feb-17 19:00N 30°06' W 093°18'1 1.3
2018-Feb-17 18:29N 30°06' W 093°19'0 0.0
2018-Feb-17 17:59N 30°06' W 093°19'0 0.0
2018-Feb-17 17:28N 30°06' W 093°19'0 0.3
2018-Feb-17 17:00N 30°06' W 093°19'2 4.6
2018-Feb-17 16:30N 30°04' W 093°21'2 3.7
2018-Feb-17 16:01N 30°04' W 093°23'0 0.2
2018-Feb-17 15:28N 30°04' W 093°23'0 0.0
2018-Feb-17 14:58N 30°04' W 093°23'0 0.0
2018-Feb-17 14:28N 30°04' W 093°23'0 0.0
2018-Feb-17 13:58N 30°04' W 093°23'0 0.0
2018-Feb-17 13:28N 30°04' W 093°23'0 0.0
2018-Feb-17 12:58N 30°04' W 093°23'0 0.0
2018-Feb-17 12:28N 30°04' W 093°23'0 0.0
2018-Feb-17 11:58N 30°04' W 093°23'0 0.0
2018-Feb-17 11:28N 30°04' W 093°23'0 0.1
2018-Feb-17 10:58N 30°04' W 093°23'0 0.0
2018-Feb-17 10:28N 30°04' W 093°23'0 0.0
2018-Feb-17 09:58N 30°04' W 093°23'0 0.0
2018-Feb-17 09:28N 30°04' W 093°23'0 0.0
2018-Feb-17 08:58N 30°04' W 093°23'0 0.0
2018-Feb-17 08:28N 30°04' W 093°23'0 0.0
2018-Feb-17 07:58N 30°04' W 093°23'0 0.0
2018-Feb-17 07:31N 30°04' W 093°23'1 1.0
2018-Feb-17 07:00N 30°04' W 093°23'2 5.0
2018-Feb-17 06:31N 30°04' W 093°26'3 5.5
2018-Feb-17 06:00N 30°04' W 093°29'3 5.2
2018-Feb-17 05:30N 30°04' W 093°32'3 5.3
2018-Feb-17 05:00N 30°04' W 093°35'3 5.3
2018-Feb-17 04:31N 30°04' W 093°39'3 5.3
2018-Feb-17 04:00N 30°04' W 093°42'3 5.5
2018-Feb-17 03:30N 30°02' W 093°44'3 6.4
2018-Feb-17 03:01N 29°60' W 093°47'3 6.9
2018-Feb-17 02:31N 29°58' W 093°50'3 5.5
2018-Feb-17 02:01N 29°56' W 093°52'4 7.3
2018-Feb-17 01:30N 29°53' W 093°55'4 7.6
2018-Feb-17 01:00N 29°50' W 093°57'3 5.9
2018-Feb-17 00:30N 29°48' W 093°60'3 5.0
2018-Feb-17 00:01N 29°47' W 094°02'2 4.8
2018-Feb-16 23:31N 29°45' W 094°04'2 4.8
2018-Feb-16 23:00N 29°44' W 094°06'2 4.8
2018-Feb-16 22:31N 29°42' W 094°09'2 4.5
2018-Feb-16 22:00N 29°41' W 094°11'2 3.2
2018-Feb-16 21:30N 29°41' W 094°13'2 4.9
2018-Feb-16 21:00N 29°39' W 094°15'2 4.8
2018-Feb-16 20:30N 29°38' W 094°18'3 4.8
2018-Feb-16 19:59N 29°37' W 094°20'2 4.6
2018-Feb-16 19:30N 29°36' W 094°22'2 4.0
2018-Feb-16 18:59N 29°36' W 094°25'3 3.6
2018-Feb-16 18:06N 29°34' W 094°28'1 4.7
2018-Feb-16 17:57N 29°33' W 094°28'15 1.6
2018-Feb-16 08:10N 29°25' W 094°43'0 0.0
2018-Feb-16 07:55N 29°25' W 094°43'0 0.0
2018-Feb-16 07:07N 29°25' W 094°43'0 0.0
2018-Feb-16 06:40N 29°25' W 094°43'0 0.0
2018-Feb-16 06:07N 29°25' W 094°43'0 0.0
2018-Feb-16 05:58N 29°25' W 094°43'0 0.4
2018-Feb-16 04:58N 29°25' W 094°44'2 3.9
2018-Feb-16 04:30N 29°24' W 094°45'2 4.7
2018-Feb-16 04:00N 29°22' W 094°47'2 5.1
2018-Feb-16 03:30N 29°24' W 094°49'4 7.2
2018-Feb-16 02:57N 29°28' W 094°51'11 7.3
2018-Feb-16 01:24N 29°38' W 094°58'4 7.7
2018-Feb-16 00:53N 29°41' W 094°59'7 0.4
2018-Feb-15 04:22N 29°47' W 095°04'0 0.0
2018-Feb-14 21:23N 29°47' W 095°04'1 3.2
2018-Feb-14 20:59N 29°46' W 095°05'0 0.0
2018-Feb-13 19:15N 29°46' W 095°05'3 5.3
2018-Feb-13 18:46N 29°44' W 095°03'2 5.4
2018-Feb-13 18:27N 29°43' W 095°01'2 4.9
2018-Feb-13 18:00N 29°42' W 094°59'3 5.7
2018-Feb-13 17:29N 29°39' W 094°58'3 6.6
2018-Feb-13 17:00N 29°36' W 094°57'5 6.6
2018-Feb-13 16:16N 29°32' W 094°54'23 0.6
2018-Feb-12 01:29N 29°34' W 094°27'4 4.2
2018-Feb-12 00:35N 29°36' W 094°23'1 0.6
2018-Feb-11 23:31N 29°36' W 094°23'0 0.0
2018-Feb-11 23:22N 29°36' W 094°23'1 0.4
2018-Feb-11 21:14N 29°36' W 094°22'1 2.8
2018-Feb-11 20:47N 29°37' W 094°21'2 4.0
2018-Feb-11 20:23N 29°38' W 094°19'2 5.2
2018-Feb-11 20:00N 29°39' W 094°17'3 5.6
2018-Feb-11 19:30N 29°40' W 094°14'3 5.4
2018-Feb-11 19:00N 29°41' W 094°11'2 4.9
2018-Feb-11 18:30N 29°42' W 094°09'2 4.3
2018-Feb-11 18:00N 29°43' W 094°07'2 4.9
2018-Feb-11 17:30N 29°45' W 094°05'2 4.9
2018-Feb-11 17:00N 29°46' W 094°02'2 4.7
2018-Feb-11 16:31N 29°48' W 094°00'2 3.9
2018-Feb-11 16:00N 29°49' W 093°59'2 3.6
2018-Feb-11 15:30N 29°50' W 093°57'3 5.9
2018-Feb-11 15:00N 29°53' W 093°55'3 6.0
2018-Feb-11 14:30N 29°55' W 093°53'1 2.6
2018-Feb-11 13:59N 29°56' W 093°52'0 0.0
2018-Feb-11 13:29N 29°56' W 093°52'0 0.0
2018-Feb-11 12:59N 29°56' W 093°52'0 0.0
2018-Feb-11 12:29N 29°56' W 093°52'0 0.1
2018-Feb-11 11:59N 29°56' W 093°52'0 0.0
2018-Feb-11 11:29N 29°56' W 093°52'0 0.0
2018-Feb-11 10:59N 29°56' W 093°52'0 0.0
2018-Feb-11 10:29N 29°56' W 093°52'0 0.0
2018-Feb-11 09:59N 29°56' W 093°52'0 0.1
2018-Feb-11 09:29N 29°56' W 093°52'0 0.0
2018-Feb-11 08:59N 29°56' W 093°52'0 0.0
2018-Feb-11 08:29N 29°56' W 093°52'0 0.0
2018-Feb-11 07:59N 29°56' W 093°52'0 0.0
2018-Feb-11 07:26N 29°56' W 093°52'0 0.1
2018-Feb-11 06:59N 29°56' W 093°52'2 3.7
2018-Feb-11 06:30N 29°58' W 093°51'2 4.0
2018-Feb-11 06:00N 29°59' W 093°49'3 5.2
2018-Feb-11 05:30N 29°60' W 093°46'3 5.5
2018-Feb-11 05:00N 30°02' W 093°44'2 4.8
2018-Feb-11 04:30N 30°03' W 093°42'2 4.8
2018-Feb-11 03:59N 30°04' W 093°39'2 4.8
2018-Feb-11 03:30N 30°04' W 093°37'2 4.7
2018-Feb-11 03:00N 30°04' W 093°34'2 4.8
2018-Feb-11 02:30N 30°04' W 093°31'2 4.8
2018-Feb-11 02:00N 30°04' W 093°28'2 4.8
2018-Feb-11 01:30N 30°04' W 093°26'2 5.0
2018-Feb-11 01:00N 30°04' W 093°23'2 4.0
2018-Feb-11 00:30N 30°04' W 093°21'2 4.0
2018-Feb-11 00:00N 30°06' W 093°19'2 2.8
2018-Feb-10 23:28N 30°05' W 093°18'0 0.4
2018-Feb-10 23:01N 30°05' W 093°17'1 2.0
2018-Feb-10 22:31N 30°04' W 093°16'1 2.9
2018-Feb-10 22:00N 30°03' W 093°16'2 4.1
2018-Feb-10 21:30N 30°02' W 093°14'2 4.2
2018-Feb-10 21:00N 29°60' W 093°13'3 4.9
2018-Feb-10 20:30N 29°58' W 093°11'2 4.8
2018-Feb-10 20:00N 29°56' W 093°09'1 2.9
2018-Feb-10 19:31N 29°56' W 093°08'2 4.8
2018-Feb-10 18:59N 29°56' W 093°05'40 2.0
2018-Feb-09 23:21N 29°50' W 092°20'2 4.2
2018-Feb-09 22:57N 29°50' W 092°18'1 4.6
2018-Feb-09 22:45N 29°49' W 092°17'  

Dump ship's entire track history